createdAt,value
2023-01-07T00:01:23.980Z,101183.44
2023-01-07T00:04:01.465Z,101175.09
2023-01-07T00:06:37.885Z,101156.28
2023-01-07T00:09:09.368Z,101159.31
2023-01-07T00:11:40.926Z,101169.81
2023-01-07T00:14:13.462Z,101178.50
2023-01-07T00:16:43.568Z,101162.66
2023-01-07T00:19:21.752Z,101175.81
2023-01-07T00:21:51.441Z,101155.94
2023-01-07T00:24:21.183Z,101176.47
2023-01-07T00:26:50.802Z,101134.97
2023-01-07T00:29:21.378Z,101170.06
2023-01-07T00:31:51.082Z,101156.94
2023-01-07T00:34:23.640Z,101158.81
2023-01-07T00:37:13.356Z,101164.91
2023-01-07T00:39:43.000Z,101159.75
2023-01-07T00:42:27.612Z,101161.47
2023-01-07T00:44:57.260Z,101149.91
2023-01-07T00:47:26.918Z,101138.03
2023-01-07T00:49:59.357Z,101141.94
2023-01-07T00:52:28.974Z,101130.25
2023-01-07T00:54:59.117Z,101133.13
2023-01-07T00:57:29.029Z,101148.50
2023-01-07T00:59:58.617Z,101148.41
2023-01-07T01:02:28.239Z,101141.72
2023-01-07T01:05:00.515Z,101134.19
2023-01-07T01:07:30.246Z,101133.59
2023-01-07T01:09:59.998Z,101126.72
2023-01-07T01:12:30.368Z,101137.25
2023-01-07T01:14:59.975Z,101133.91
2023-01-07T01:17:29.634Z,101143.00
2023-01-07T01:20:01.963Z,101132.13
2023-01-07T01:22:31.628Z,101142.53
2023-01-07T01:25:01.322Z,101130.72
2023-01-07T01:27:32.401Z,101099.47
2023-01-07T01:30:02.448Z,101123.75
2023-01-07T01:32:33.394Z,101138.19
2023-01-07T01:35:05.921Z,101135.88
2023-01-07T01:37:35.658Z,101098.78
2023-01-07T01:40:06.765Z,101137.75
2023-01-07T01:42:38.466Z,101134.31
2023-01-07T01:45:10.573Z,101143.13
2023-01-07T01:47:52.486Z,101124.00
2023-01-07T01:50:29.547Z,101141.13
2023-01-07T01:53:05.082Z,101142.78
2023-01-07T01:55:39.695Z,101137.97
2023-01-07T01:58:12.484Z,101134.50
2023-01-07T02:00:42.769Z,101135.13
2023-01-07T02:03:19.180Z,101115.28
2023-01-07T02:05:52.178Z,101116.13
2023-01-07T02:08:23.388Z,101094.38
2023-01-07T02:11:11.558Z,101123.53
2023-01-07T02:13:54.194Z,101116.31
2023-01-07T02:16:32.678Z,101106.56
2023-01-07T02:19:19.005Z,101121.59
2023-01-07T02:21:58.637Z,101122.22
2023-01-07T02:24:52.587Z,101122.41
2023-01-07T02:27:37.572Z,101097.59
2023-01-07T02:30:49.060Z,101111.22
2023-01-07T02:33:32.628Z,101113.03
2023-01-07T02:36:13.603Z,101106.94
2023-01-07T02:38:57.164Z,101105.38
2023-01-07T02:41:39.278Z,101076.31
2023-01-07T02:44:17.121Z,101100.69
2023-01-07T02:46:53.242Z,101095.75
2023-01-07T02:49:26.873Z,101094.66
2023-01-07T02:51:56.470Z,101100.88
2023-01-07T02:54:31.403Z,101090.13
2023-01-07T02:57:24.223Z,101090.06
2023-01-07T03:00:09.711Z,101076.09
2023-01-07T03:02:59.463Z,101083.28
2023-01-07T03:05:47.871Z,101062.66
2023-01-07T03:08:37.267Z,101075.41
2023-01-07T03:11:10.520Z,101080.78
2023-01-07T03:13:46.229Z,101062.88
2023-01-07T03:16:21.328Z,101064.72
2023-01-07T03:18:58.211Z,101062.34
2023-01-07T03:21:32.863Z,101072.72
2023-01-07T03:24:04.565Z,101060.88
2023-01-07T03:26:36.613Z,101060.50
2023-01-07T03:29:09.838Z,101050.94
2023-01-07T03:31:43.953Z,101060.84
2023-01-07T03:34:18.152Z,101049.41
2023-01-07T03:36:58.890Z,101059.44
2023-01-07T03:39:32.138Z,101046.88
2023-01-07T03:42:14.572Z,101052.13
2023-01-07T03:44:44.538Z,101053.72
2023-01-07T03:47:15.806Z,101059.41
2023-01-07T03:49:45.443Z,101047.28
2023-01-07T03:52:17.827Z,101054.38
2023-01-07T03:54:47.470Z,101054.47
2023-01-07T03:57:18.407Z,101042.44
2023-01-07T03:59:48.075Z,101048.44
2023-01-07T04:02:18.235Z,101029.44
2023-01-07T04:04:48.011Z,101013.91
2023-01-07T04:07:20.988Z,100959.09
2023-01-07T04:09:50.937Z,101019.41
2023-01-07T04:12:20.954Z,101012.44
2023-01-07T04:14:50.624Z,101015.03
2023-01-07T04:17:20.261Z,101025.47
2023-01-07T04:19:50.410Z,101011.84
2023-01-07T04:22:22.804Z,101017.09
2023-01-07T04:24:52.521Z,101015.16
2023-01-07T04:27:22.581Z,101010.00
2023-01-07T04:29:52.235Z,100992.75
2023-01-07T04:32:22.966Z,101014.88
2023-01-07T04:34:52.993Z,101019.97
2023-01-07T04:37:25.826Z,101004.91
2023-01-07T04:39:55.517Z,100990.06
2023-01-07T04:42:25.825Z,100995.44
2023-01-07T04:44:55.498Z,100999.81
2023-01-07T04:47:25.565Z,100988.59
2023-01-07T04:49:55.843Z,100985.09
2023-01-07T04:52:28.243Z,100991.09
2023-01-07T04:54:58.086Z,100965.38
2023-01-07T04:57:27.773Z,100992.91
2023-01-07T04:59:57.650Z,100993.72
2023-01-07T05:02:28.164Z,100984.38
2023-01-07T05:04:58.308Z,100972.53
2023-01-07T05:07:31.626Z,100984.59
2023-01-07T05:10:02.180Z,100967.38
2023-01-07T05:12:36.982Z,100983.78
2023-01-07T05:15:09.667Z,100980.34
2023-01-07T05:17:41.993Z,100982.84
2023-01-07T05:20:13.659Z,100972.50
2023-01-07T05:22:50.292Z,100980.50
2023-01-07T05:25:20.978Z,100954.69
2023-01-07T05:27:50.756Z,100963.31
2023-01-07T05:30:21.071Z,100977.19
2023-01-07T05:32:50.733Z,100979.44
2023-01-07T05:35:20.716Z,100968.25
2023-01-07T05:37:53.282Z,100951.94
2023-01-07T05:40:23.538Z,100983.72
2023-01-07T05:42:53.146Z,100970.69
2023-01-07T05:45:23.088Z,100981.94
2023-01-07T05:47:52.809Z,100970.69
2023-01-07T05:50:22.477Z,100986.16
2023-01-07T05:52:55.994Z,100985.34
2023-01-07T05:55:25.645Z,100997.06
2023-01-07T05:57:55.283Z,100983.50
2023-01-07T06:00:25.122Z,100984.38
2023-01-07T06:02:54.749Z,100974.88
2023-01-07T06:05:25.095Z,100985.13
2023-01-07T06:07:57.520Z,100973.03
2023-01-07T06:10:27.162Z,100986.94
2023-01-07T06:12:56.866Z,100977.44
2023-01-07T06:15:26.556Z,100949.84
2023-01-07T06:17:56.245Z,100978.03
2023-01-07T06:20:26.125Z,100983.16
2023-01-07T06:22:58.355Z,100962.50
2023-01-07T06:25:28.923Z,100944.56
2023-01-07T06:27:59.544Z,100970.81
2023-01-07T06:30:29.599Z,100971.38
2023-01-07T06:32:59.236Z,100976.59
2023-01-07T06:35:29.059Z,100962.06
2023-01-07T06:38:01.595Z,100971.72
2023-01-07T06:40:31.228Z,100970.81
2023-01-07T06:43:00.933Z,100950.28
2023-01-07T06:45:30.635Z,100962.50
2023-01-07T06:48:00.302Z,100954.91
2023-01-07T06:50:30.056Z,100953.63
2023-01-07T06:53:02.273Z,100954.34
2023-01-07T06:55:31.914Z,100953.19
2023-01-07T06:58:01.590Z,100928.41
2023-01-07T07:00:31.642Z,100918.69
2023-01-07T07:03:01.374Z,100952.78
2023-01-07T07:05:31.352Z,100933.94
2023-01-07T07:08:04.262Z,100947.31
2023-01-07T07:10:33.996Z,100935.16
2023-01-07T07:13:03.782Z,100941.59
2023-01-07T07:15:33.478Z,100951.69
2023-01-07T07:18:03.123Z,100948.09
2023-01-07T07:20:32.841Z,100939.97
2023-01-07T07:23:05.172Z,100940.78
2023-01-07T07:25:34.832Z,100932.97
2023-01-07T07:28:04.467Z,100921.72
2023-01-07T07:30:45.470Z,100934.47
2023-01-07T07:33:19.405Z,100908.47
2023-01-07T07:35:49.808Z,100915.94
2023-01-07T07:38:22.082Z,100921.47
2023-01-07T07:40:51.875Z,100923.94
2023-01-07T07:43:21.588Z,100930.00
2023-01-07T07:45:51.310Z,100922.19
2023-01-07T07:48:20.975Z,100899.06
2023-01-07T07:50:53.296Z,100909.16
2023-01-07T07:53:25.754Z,100921.31
2023-01-07T07:55:55.825Z,100922.13
2023-01-07T07:58:25.664Z,100918.94
2023-01-07T08:00:55.410Z,100910.06
2023-01-07T08:03:25.155Z,100911.25
2023-01-07T08:05:54.827Z,100910.63
2023-01-07T08:08:27.088Z,100932.84
2023-01-07T08:10:58.116Z,100895.03
2023-01-07T08:13:30.039Z,100908.88
2023-01-07T08:16:00.139Z,100919.34
2023-01-07T08:18:33.248Z,100918.25
2023-01-07T08:21:06.174Z,100908.81
2023-01-07T08:23:38.431Z,100920.00
2023-01-07T08:26:08.524Z,100922.50
2023-01-07T08:28:40.612Z,100917.69
2023-01-07T08:31:14.320Z,100916.88
2023-01-07T08:33:46.090Z,100917.09
2023-01-07T08:36:22.551Z,100902.56
2023-01-07T08:38:56.852Z,100915.72
2023-01-07T08:41:27.599Z,100925.19
2023-01-07T08:43:58.389Z,100913.34
2023-01-07T08:46:30.127Z,100912.00
2023-01-07T08:49:06.948Z,100906.16
2023-01-07T08:51:37.719Z,100910.59
2023-01-07T08:54:10.039Z,100855.94
2023-01-07T08:56:39.716Z,100896.69
2023-01-07T08:59:11.519Z,100895.16
2023-01-07T09:01:42.393Z,100903.84
2023-01-07T09:04:13.260Z,100902.31
2023-01-07T09:06:42.978Z,100895.44
2023-01-07T09:09:16.694Z,100897.31
2023-01-07T09:11:46.584Z,100894.63
2023-01-07T09:14:16.512Z,100896.66
2023-01-07T09:16:49.360Z,100894.09
2023-01-07T09:19:20.287Z,100899.31
2023-01-07T09:21:51.381Z,100895.81
2023-01-07T09:24:23.689Z,100899.31
2023-01-07T09:26:53.433Z,100890.84
2023-01-07T09:29:23.172Z,100886.91
2023-01-07T09:31:52.882Z,100897.25
2023-01-07T09:34:26.262Z,100890.47
2023-01-07T09:36:59.239Z,100894.09
2023-01-07T09:39:32.574Z,100889.91
2023-01-07T09:42:11.823Z,100895.28
2023-01-07T09:44:56.455Z,100876.13
2023-01-07T09:47:29.230Z,100848.78
2023-01-07T09:50:03.241Z,100892.00
2023-01-07T09:52:41.990Z,100882.56
2023-01-07T09:55:20.566Z,100877.03
2023-01-07T09:57:51.719Z,100874.34
2023-01-07T10:00:26.327Z,100876.84
2023-01-07T10:03:13.355Z,100863.22
2023-01-07T10:06:00.673Z,100879.00
2023-01-07T10:08:39.810Z,100849.88
2023-01-07T10:11:23.262Z,100875.81
2023-01-07T10:14:08.613Z,100825.91
2023-01-07T10:16:46.278Z,100837.94
2023-01-07T10:19:26.283Z,100853.00
2023-01-07T10:22:04.130Z,100854.75
2023-01-07T10:24:43.954Z,100847.25
2023-01-07T10:27:18.060Z,100854.06
2023-01-07T10:29:55.226Z,100841.16
2023-01-07T10:32:33.434Z,100841.84
2023-01-07T10:35:06.597Z,100824.91
2023-01-07T10:37:40.096Z,100838.03
2023-01-07T10:40:24.847Z,100839.72
2023-01-07T10:43:03.972Z,100844.34
2023-01-07T10:45:52.554Z,100832.31
2023-01-07T10:48:48.704Z,100838.34
2023-01-07T10:51:41.155Z,100834.84
2023-01-07T10:54:26.387Z,100827.50
2023-01-07T10:57:00.761Z,100804.28
2023-01-07T10:59:39.351Z,100807.00
2023-01-07T11:02:19.997Z,100821.34
2023-01-07T11:04:55.951Z,100825.63
2023-01-07T11:07:34.779Z,100815.25
2023-01-07T11:10:08.426Z,100791.31
2023-01-07T11:12:44.231Z,100800.88
2023-01-07T11:15:23.476Z,100807.59
2023-01-07T11:17:59.407Z,100794.66
2023-01-07T11:20:50.035Z,100781.91
2023-01-07T11:23:32.653Z,100788.19
2023-01-07T11:26:26.208Z,100791.13
2023-01-07T11:28:58.002Z,100779.91
2023-01-07T11:31:49.893Z,100785.31
2023-01-07T11:34:25.201Z,100776.81
2023-01-07T11:36:55.455Z,100757.88
2023-01-07T11:39:30.537Z,100763.19
2023-01-07T11:42:21.951Z,100754.72
2023-01-07T11:44:51.635Z,100753.03
2023-01-07T11:47:23.969Z,100752.31
2023-01-07T11:49:54.835Z,100736.00
2023-01-07T11:52:24.692Z,100741.44
2023-01-07T11:54:54.716Z,100716.72
2023-01-07T11:57:27.197Z,100719.50
2023-01-07T12:00:17.508Z,100708.31
2023-01-07T12:03:02.905Z,100715.25
2023-01-07T12:05:33.985Z,100697.19
2023-01-07T12:08:05.760Z,100660.13
2023-01-07T12:10:38.887Z,100700.94
2023-01-07T12:13:25.507Z,100634.66
2023-01-07T12:15:57.586Z,100666.22
2023-01-07T12:18:41.636Z,100678.34
2023-01-07T12:21:27.938Z,100693.03
2023-01-07T12:24:10.773Z,100683.53
2023-01-07T12:26:48.497Z,100666.59
2023-01-07T12:29:32.109Z,100653.97
2023-01-07T12:32:16.011Z,100671.91
2023-01-07T12:34:58.504Z,100636.06
2023-01-07T12:37:49.579Z,100652.25
2023-01-07T12:40:33.138Z,100647.25
2023-01-07T12:43:12.802Z,100645.41
2023-01-07T12:45:50.516Z,100640.34
2023-01-07T12:48:28.048Z,100634.28
2023-01-07T12:51:05.182Z,100577.81
2023-01-07T12:53:41.619Z,100622.44
2023-01-07T12:56:23.056Z,100608.41
2023-01-07T12:59:01.677Z,100594.91
2023-01-07T13:01:36.970Z,100597.47
2023-01-07T13:04:16.262Z,100600.78
2023-01-07T13:06:56.249Z,100596.75
2023-01-07T13:09:33.467Z,100595.22
2023-01-07T13:12:41.003Z,100592.81
2023-01-07T13:15:15.879Z,100586.06
2023-01-07T13:17:45.651Z,100563.75
2023-01-07T13:20:16.443Z,100570.59
2023-01-07T13:22:53.512Z,100575.03
2023-01-07T13:25:37.584Z,100558.66
2023-01-07T13:28:39.090Z,100562.69
2023-01-07T13:31:25.010Z,100563.69
2023-01-07T13:34:05.274Z,100530.47
2023-01-07T13:36:46.337Z,100546.75
2023-01-07T13:39:41.354Z,100539.91
2023-01-07T13:42:27.297Z,100543.28
2023-01-07T13:45:05.588Z,100534.69
2023-01-07T13:47:45.976Z,100508.16
2023-01-07T13:50:26.339Z,100532.25
2023-01-07T13:53:05.511Z,100527.09
2023-01-07T13:55:46.362Z,100522.94
2023-01-07T13:58:37.887Z,100517.88
2023-01-07T14:01:11.736Z,100505.78
2023-01-07T14:03:53.316Z,100516.81
2023-01-07T14:06:48.428Z,100507.50
2023-01-07T14:09:40.566Z,100503.19
2023-01-07T14:12:55.814Z,100505.59
2023-01-07T14:16:00.660Z,100508.22
2023-01-07T14:19:03.985Z,100496.00
2023-01-07T14:21:45.284Z,100508.16
2023-01-07T14:24:37.291Z,100474.75
2023-01-07T14:27:26.622Z,100499.75
2023-01-07T14:30:16.263Z,100499.00
2023-01-07T14:32:47.601Z,100476.44
2023-01-07T14:35:29.290Z,100473.09
2023-01-07T14:38:01.039Z,100482.50
2023-01-07T14:41:07.753Z,100497.94
2023-01-07T14:44:07.497Z,100497.78
2023-01-07T14:46:53.356Z,100492.50
2023-01-07T14:49:44.197Z,100480.53
2023-01-07T14:52:27.065Z,100467.53
2023-01-07T14:55:21.035Z,100458.94
2023-01-07T14:58:08.139Z,100454.28
2023-01-07T15:00:57.426Z,100469.91
2023-01-07T15:03:55.546Z,100468.53
2023-01-07T15:06:31.485Z,100463.25
2023-01-07T15:09:20.597Z,100433.44
2023-01-07T15:12:04.475Z,100448.09
2023-01-07T15:14:55.790Z,100439.72
2023-01-07T15:17:28.074Z,100445.75
2023-01-07T15:20:02.241Z,100431.25
2023-01-07T15:22:53.337Z,100433.78
2023-01-07T15:25:36.242Z,100427.91
2023-01-07T15:28:22.727Z,100402.94
2023-01-07T15:31:03.732Z,100408.81
2023-01-07T15:33:47.221Z,100432.66
2023-01-07T15:36:20.770Z,100412.94
2023-01-07T15:38:53.859Z,100419.88
2023-01-07T15:41:33.480Z,100401.97
2023-01-07T15:44:09.684Z,100409.81
2023-01-07T15:46:43.165Z,100396.59
2023-01-07T15:49:21.145Z,100393.13
2023-01-07T15:51:56.940Z,100398.41
2023-01-07T15:54:32.712Z,100400.03
2023-01-07T15:57:09.008Z,100393.81
2023-01-07T15:59:47.259Z,100386.16
2023-01-07T16:02:24.842Z,100386.66
2023-01-07T16:05:01.371Z,100383.81
2023-01-07T16:07:36.976Z,100373.09
2023-01-07T16:10:08.222Z,100368.91
2023-01-07T16:12:40.840Z,100378.31
2023-01-07T16:15:32.619Z,100373.00
2023-01-07T16:18:04.338Z,100374.91
2023-01-07T16:20:37.543Z,100353.81
2023-01-07T16:23:22.822Z,100368.59
2023-01-07T16:26:00.157Z,100342.84
2023-01-07T16:28:36.055Z,100362.56
2023-01-07T16:31:08.192Z,100341.16
2023-01-07T16:33:40.348Z,100354.19
2023-01-07T16:36:16.837Z,100322.72
2023-01-07T16:38:56.291Z,100358.03
2023-01-07T16:41:30.609Z,100339.19
2023-01-07T16:44:02.093Z,100358.03
2023-01-07T16:46:36.158Z,100351.78
2023-01-07T16:49:28.700Z,100321.38
2023-01-07T16:52:08.049Z,100359.25
2023-01-07T16:54:42.895Z,100341.34
2023-01-07T16:57:33.051Z,100349.09
2023-01-07T17:00:06.777Z,100352.56
2023-01-07T17:02:41.832Z,100317.66
2023-01-07T17:05:18.549Z,100353.09
2023-01-07T17:07:50.796Z,100317.09
2023-01-07T17:10:29.193Z,100348.06
2023-01-07T17:13:01.867Z,100324.88
2023-01-07T17:15:39.491Z,100306.84
2023-01-07T17:18:31.495Z,100324.97
2023-01-07T17:21:02.963Z,100302.59
2023-01-07T17:23:45.704Z,100288.25
2023-01-07T17:26:27.108Z,100323.34
2023-01-07T17:28:58.979Z,100249.63
2023-01-07T17:31:32.371Z,100301.03
2023-01-07T17:34:05.308Z,100313.84
2023-01-07T17:36:35.341Z,100318.94
2023-01-07T17:39:04.999Z,100296.81
2023-01-07T17:41:53.623Z,100306.34
2023-01-07T17:44:24.510Z,100301.13
2023-01-07T17:46:55.551Z,100275.38
2023-01-07T17:49:26.934Z,100298.56
2023-01-07T17:51:56.634Z,100271.09
2023-01-07T17:54:28.168Z,100241.03
2023-01-07T17:57:03.943Z,100219.63
2023-01-07T17:59:33.582Z,100292.59
2023-01-07T18:02:05.632Z,100273.66
2023-01-07T18:04:37.439Z,100295.22
2023-01-07T18:07:08.155Z,100242.25
2023-01-07T18:09:39.328Z,100285.03
2023-01-07T18:12:36.112Z,100243.94
2023-01-07T18:15:07.182Z,100271.19
2023-01-07T18:17:37.805Z,100290.97
2023-01-07T18:20:09.449Z,100296.94
2023-01-07T18:22:39.073Z,100282.47
2023-01-07T18:25:18.963Z,100280.72
2023-01-07T18:27:53.549Z,100272.84
2023-01-07T18:30:24.667Z,100273.81
2023-01-07T18:32:54.276Z,100237.63
2023-01-07T18:35:27.315Z,100270.09
2023-01-07T18:37:57.037Z,100280.38
2023-01-07T18:40:28.785Z,100276.09
2023-01-07T18:43:01.058Z,100259.78
2023-01-07T18:45:32.860Z,100276.81
2023-01-07T18:48:04.549Z,100274.38
2023-01-07T18:50:34.291Z,100253.84
2023-01-07T18:53:05.602Z,100250.53
2023-01-07T18:55:35.293Z,100268.41
2023-01-07T18:58:08.019Z,100263.38
2023-01-07T19:00:39.045Z,100211.88
2023-01-07T19:03:08.745Z,100250.09
2023-01-07T19:05:42.708Z,100233.03
2023-01-07T19:08:12.399Z,100240.91
2023-01-07T19:10:49.702Z,100257.00
2023-01-07T19:13:22.037Z,100106.69
2023-01-07T19:15:51.761Z,100254.00
2023-01-07T19:18:21.503Z,100130.56
2023-01-07T19:20:53.320Z,100250.16
2023-01-07T19:23:23.180Z,100263.63
2023-01-07T19:26:00.287Z,100207.97
2023-01-07T19:28:32.901Z,100260.34
2023-01-07T19:31:08.341Z,100249.28
2023-01-07T19:33:42.328Z,100238.13
2023-01-07T19:36:15.890Z,100225.50
2023-01-07T19:38:50.353Z,100229.00
2023-01-07T19:41:24.538Z,100228.97
2023-01-07T19:44:00.868Z,100196.91
2023-01-07T19:46:34.781Z,100202.28
2023-01-07T19:49:04.713Z,100169.81
2023-01-07T19:51:34.897Z,100144.97
2023-01-07T19:54:05.735Z,100182.66
2023-01-07T19:56:43.725Z,100177.47
2023-01-07T19:59:17.601Z,100170.59
2023-01-07T20:01:47.373Z,100158.72
2023-01-07T20:04:20.354Z,100066.22
2023-01-07T20:06:51.129Z,100093.47
2023-01-07T20:09:24.517Z,100107.97
2023-01-07T20:11:54.413Z,100137.22
2023-01-07T20:14:26.731Z,100098.78
2023-01-07T20:16:56.567Z,100104.19
2023-01-07T20:19:27.410Z,100103.25
2023-01-07T20:22:00.403Z,100070.78
2023-01-07T20:24:30.188Z,100081.22
2023-01-07T20:27:00.177Z,100091.59
2023-01-07T20:29:36.035Z,100097.59
2023-01-07T20:32:13.140Z,100111.47
2023-01-07T20:34:43.375Z,100103.81
2023-01-07T20:37:15.118Z,100073.50
2023-01-07T20:39:44.836Z,100108.59
2023-01-07T20:42:14.556Z,100047.94
2023-01-07T20:44:51.715Z,100089.25
2023-01-07T20:47:21.530Z,100099.09
2023-01-07T20:49:51.220Z,100095.16
2023-01-07T20:52:20.935Z,100089.91
2023-01-07T20:54:54.437Z,100072.72
2023-01-07T20:57:24.366Z,100118.66
2023-01-07T21:00:00.096Z,100114.91
2023-01-07T21:02:30.082Z,100068.72
2023-01-07T21:05:02.031Z,99959.25
2023-01-07T21:07:35.430Z,100113.56
2023-01-07T21:10:09.538Z,100111.94
2023-01-07T21:12:43.206Z,99985.88
2023-01-07T21:15:16.937Z,100114.16
2023-01-07T21:17:48.780Z,100079.19
2023-01-07T21:20:18.707Z,100091.03
2023-01-07T21:22:56.206Z,100087.69
2023-01-07T21:25:29.474Z,100053.38
2023-01-07T21:27:59.288Z,100044.94
2023-01-07T21:30:33.717Z,100070.72
2023-01-07T21:33:03.407Z,100070.75
2023-01-07T21:35:35.076Z,100064.03
2023-01-07T21:38:08.426Z,100029.06
2023-01-07T21:40:42.252Z,100054.84
2023-01-07T21:43:12.185Z,100061.00
2023-01-07T21:45:46.579Z,100051.06
2023-01-07T21:48:17.415Z,100059.34
2023-01-07T21:50:47.252Z,100063.53
2023-01-07T21:53:20.885Z,100046.78
2023-01-07T21:55:51.730Z,100058.69
2023-01-07T21:58:22.599Z,100038.94
2023-01-07T22:00:58.166Z,100049.22
2023-01-07T22:03:30.166Z,100037.09
2023-01-07T22:06:01.339Z,100057.56
2023-01-07T22:08:31.831Z,100034.53
2023-01-07T22:11:01.566Z,100046.41
2023-01-07T22:13:31.299Z,100018.28
2023-01-07T22:16:04.323Z,100042.16
2023-01-07T22:18:34.510Z,100029.53
2023-01-07T22:21:05.099Z,100043.34
2023-01-07T22:23:37.205Z,100082.53
2023-01-07T22:26:08.310Z,100043.25
2023-01-07T22:28:40.597Z,100052.03
2023-01-07T22:31:18.812Z,100010.91
2023-01-07T22:33:50.835Z,100064.81
2023-01-07T22:36:25.595Z,100035.88
2023-01-07T22:38:59.145Z,100045.31
2023-01-07T22:41:31.574Z,100033.28
2023-01-07T22:44:02.241Z,100033.31
2023-01-07T22:46:36.800Z,100039.97
2023-01-07T22:49:11.504Z,100008.34
2023-01-07T22:51:46.606Z,100017.84
2023-01-07T22:54:19.279Z,99961.34
2023-01-07T22:56:50.058Z,100027.25
2023-01-07T22:59:21.009Z,100030.56
2023-01-07T23:01:53.362Z,100029.03
2023-01-07T23:04:26.496Z,99973.44
2023-01-07T23:06:57.460Z,100035.06
2023-01-07T23:09:28.456Z,99999.91
2023-01-07T23:12:00.907Z,100004.31
2023-01-07T23:14:32.633Z,99890.31
2023-01-07T23:17:06.204Z,99890.44
2023-01-07T23:19:39.479Z,99975.03
2023-01-07T23:22:12.427Z,100005.91
2023-01-07T23:24:43.147Z,99886.75
2023-01-07T23:27:15.468Z,99941.66
2023-01-07T23:29:47.222Z,100008.13
2023-01-07T23:32:20.976Z,99855.91
2023-01-07T23:34:54.413Z,99942.22
2023-01-07T23:37:25.286Z,99970.50
2023-01-07T23:39:58.388Z,99996.22
2023-01-07T23:42:28.218Z,99952.66
2023-01-07T23:44:59.208Z,99881.63
2023-01-07T23:47:31.602Z,99856.19
2023-01-07T23:50:02.434Z,99975.13
2023-01-07T23:52:33.236Z,99973.44
2023-01-07T23:55:04.002Z,99956.38
2023-01-07T23:57:37.591Z,99936.81
